Relevés horaires Beauvechain (Belgique)


Relevés horaires à Beauvechain - Vendredi 07 Juill. 2017
Heure UTC1 Température [°C] Vent [km/h] Hum. [%] Pres.4 [hPa] Visi. [Km] Nébu. [octa] Préc.5 [mm] Cond.
2m. Res. Ros. Dir.2 Vit. Moy. Raf.3
23:00 19.9 19.9 14.8 NNO 1.9 -- 0.0 72 1017.5(0.8/3h) 18 -- -- --
22:00 20.5 20.5 14.7 NNO 1.9 -- 0.0 69 1017.5(1.2/3h) 20 -- -- --
21:00 21.2 21.2 14.6 NNO 1.9 -- 9.3 66 1017.3(1.3/3h) 20 -- -- --
20:00 21.3 21.3 15.7 NNO 1.9 -- 5.6 70 1016.6(0.5/3h) 20 -- -- --
19:00 23.6 23.6 15.8 N 3.7 -- 9.3 62 1016(0.0/3h) 20 -- -- --
18:00 25.7 25.7 14.3 NO 5.6 -- 18.5 49 1015.8(-0.2/3h) 20 -- -- --
17:00 27.2 27.2 15.9 NO 5.6 -- 11.1 50 1015.7(-0.6/3h) 20 -- -- --
16:00 27.3 27.3 15.0 O 7.4 -- 14.8 47 1015.8(-0.4/3h) 25 6/8 -- --
15:00 27.5 27.5 14.2 O 9.3 -- 18.5 44 1016(0.0/3h) 25 6/8 -- --
14:00 27.5 27.5 14.5 O 9.3 -- 16.7 45 1016.2(0.5/3h) 25 2/8 -- --
13:00 28.0 28.0 14.0 O 9.3 -- 18.5 42 1016.2(0.9/3h) 25 2/8 -- --
12:00 27.3 27.3 16.1 O 9.3 -- 16.7 50 1016(0.8/3h) 25 2/8 -- --
11:00 27.1 27.1 16.3 O 11.1 -- 14.8 52 1015.7(0.8/3h) 20 2/8 -- --
10:00 26.0 26.0 17.1 OSO 11.1 -- 14.8 58 1015.3(0.8/3h) 20 3/8 -- --
09:00 24.5 24.5 17.9 OSO 9.3 -- 13.0 67 1015.2(1.0/3h) 20 3/8 -- --
08:00 22.5 22.5 17.6 OSO 7.4 -- 13.0 74 1015(0.9/3h) 20 3/8 -- --
07:00 21.2 21.2 16.9 OSO 9.3 -- 13.0 76 1014.7(0.4/3h) 20 3/8 -- --
06:00 19.9 19.9 16.2 SO 7.4 -- 11.1 79 1014.5(0.2/3h) 25 3/8 -- --
05:00 18.6 18.6 15.1 SSO 5.6 -- 9.3 80 1014.2(-0.1/3h) 25 3/8 -- --
04:00 17.7 17.7 14.1 SO 3.7 -- 7.4 79 1014.5(-0.1/3h) 20 3/8 -- --
03:00 17.9 17.9 13.4 SSO 5.6 -- 7.4 75 1014.2(-0.2/3h) 20 -- -- --
02:00 17.2 17.2 13.8 SO 5.6 -- 5.6 80 1014.6(0.3/3h) 20 -- -- --
01:00 18.4 18.4 14.9 NNO 1.9 -- 5.6 80 1014.5(-0.1/3h) 20 -- -- --
00:00 19.7 19.7 14.8 NNO 1.9 -- 13.0 73 1014.3(0.1/3h) 20 -- -- --

1 Coordinated Universal Time. Actuellement il est 07:00 locale et 05:00 UTC.

2 Le vent souffle depuis la direction indiquée vers la direction oposée.

3 Les rafales max. sont disponible 40 min après l'heure du relevé.

4 Pour les stations d'altitude (plus de 600m) le géopotentiel du niveau le plus proche de la pression obligatoire est indiqué.

5 Les stations disposant d'un diffuseur peuvent indiquer "trace". Cela signifie que des précipitations ont touchés le sol mais que la quantité est inférieure à 0.1 mm.

Récapitulatif de la journée
Température [°C] Vent [km/h] Ensoleillement4 [h] Precipitations totale5 [mm] Pression [Hpa]
Min1 Max.2 Moy.3 Max. Min Max.
17.2 28.5 0 18.5 0 h 0 min 0 1014.2 1017.5

1 Température minimale relevée entre 18:00 UTC la veille et 18:00 UTC le jour donné.

2 Température maximale relevée entre 06:00 UTC le jour donné et 06:00 UTC le lendemain.

3 Vent moyen de la journée basé sur les relevés horaires.

4 Ensoleillement en heures relevé entre 06:00 UTC la veille et 06:00 UTC le jour donné.

5 Précipitations totales tombées entre 06:00 UTC la jour donné et 06:00 UTC le lendemain.

Graphiques horaires